createdAt,value
2018-01-21T00:00:40.971Z,998.77
2018-01-21T00:01:40.984Z,998.77
2018-01-21T00:02:41.002Z,998.81
2018-01-21T00:03:41.017Z,998.79
2018-01-21T00:04:41.030Z,998.80
2018-01-21T00:05:41.042Z,998.87
2018-01-21T00:06:41.056Z,998.87
2018-01-21T00:07:41.075Z,998.88
2018-01-21T00:08:41.095Z,998.94
2018-01-21T00:09:41.104Z,998.98
2018-01-21T00:10:41.122Z,999.02
2018-01-21T00:11:41.140Z,999.04
2018-01-21T00:12:41.151Z,999.04
2018-01-21T00:13:41.160Z,999.02
2018-01-21T00:14:41.180Z,999.09
2018-01-21T00:15:41.194Z,999.07
2018-01-21T00:16:41.211Z,999.05
2018-01-21T00:17:41.276Z,999.06
2018-01-21T00:18:41.244Z,999.11
2018-01-21T00:19:41.265Z,999.13
2018-01-21T00:20:41.270Z,999.19
2018-01-21T00:21:41.289Z,999.19
2018-01-21T00:22:41.302Z,999.12
2018-01-21T00:23:41.317Z,999.18
2018-01-21T00:24:41.334Z,999.17
2018-01-21T00:25:41.344Z,999.23
2018-01-21T00:26:41.364Z,999.24
2018-01-21T00:27:41.378Z,999.25
2018-01-21T00:28:41.391Z,999.27
2018-01-21T00:29:41.413Z,999.33
2018-01-21T00:30:41.423Z,999.35
2018-01-21T00:31:41.433Z,999.42
2018-01-21T00:32:41.459Z,999.40
2018-01-21T00:33:41.469Z,999.39
2018-01-21T00:34:41.485Z,999.46
2018-01-21T00:35:41.501Z,999.43
2018-01-21T00:36:41.511Z,999.44
2018-01-21T00:37:41.528Z,999.49
2018-01-21T00:38:41.544Z,999.52
2018-01-21T00:39:41.559Z,999.55
2018-01-21T00:40:41.572Z,999.54
2018-01-21T00:41:41.583Z,999.50
2018-01-21T00:42:41.607Z,999.60
2018-01-21T00:43:41.617Z,999.55
2018-01-21T00:44:41.634Z,999.57
2018-01-21T00:45:41.648Z,999.61
2018-01-21T00:46:41.659Z,999.61
2018-01-21T00:47:41.676Z,999.66
2018-01-21T00:48:41.693Z,999.74
2018-01-21T00:49:41.709Z,999.73
2018-01-21T00:50:41.723Z,999.76
2018-01-21T00:51:41.736Z,999.74
2018-01-21T00:52:41.751Z,999.77
2018-01-21T00:53:41.769Z,999.81
2018-01-21T00:54:41.786Z,999.87
2018-01-21T00:55:41.797Z,999.88
2018-01-21T00:56:41.811Z,999.91
2018-01-21T00:57:41.824Z,999.98
2018-01-21T00:58:41.841Z,1000.03
2018-01-21T00:59:41.852Z,1000.01
2018-01-21T01:00:41.871Z,1000.04
2018-01-21T01:01:41.883Z,1000.08
2018-01-21T01:02:41.900Z,1000.06
2018-01-21T01:03:41.916Z,1000.13
2018-01-21T01:04:41.936Z,1000.14
2018-01-21T01:05:41.950Z,1000.16
2018-01-21T01:06:41.962Z,1000.21
2018-01-21T01:07:41.976Z,1000.28
2018-01-21T01:08:41.986Z,1000.31
2018-01-21T01:09:42.003Z,1000.31
2018-01-21T01:10:42.018Z,1000.27
2018-01-21T01:11:42.031Z,1000.31
2018-01-21T01:12:42.053Z,1000.30
2018-01-21T01:13:42.067Z,1000.34
2018-01-21T01:14:42.080Z,1000.41
2018-01-21T01:15:42.092Z,1000.36
2018-01-21T01:16:42.109Z,1000.49
2018-01-21T01:17:42.166Z,1000.49
2018-01-21T01:18:42.140Z,1000.48
2018-01-21T01:19:42.154Z,1000.51
2018-01-21T01:20:42.167Z,1000.54
2018-01-21T01:21:42.180Z,1000.54
2018-01-21T01:22:42.197Z,1000.61
2018-01-21T01:23:42.211Z,1000.63
2018-01-21T01:24:42.227Z,1000.70
2018-01-21T01:25:42.243Z,1000.71
2018-01-21T01:26:42.261Z,1000.69
2018-01-21T01:27:42.274Z,1000.76
2018-01-21T01:28:42.287Z,1000.77
2018-01-21T01:29:42.304Z,1000.75
2018-01-21T01:30:42.317Z,1000.80
2018-01-21T01:31:42.333Z,1000.88
2018-01-21T01:32:42.347Z,1000.94
2018-01-21T01:33:42.359Z,1000.91
2018-01-21T01:34:42.373Z,1000.98
2018-01-21T01:35:42.385Z,1000.98
2018-01-21T01:36:42.404Z,1000.98
2018-01-21T01:37:42.422Z,1001.01
2018-01-21T01:38:42.437Z,1001.05
2018-01-21T01:39:42.448Z,1001.05
2018-01-21T01:40:42.465Z,1001.07
2018-01-21T01:41:42.482Z,1001.09
2018-01-21T01:42:42.493Z,1001.12
2018-01-21T01:43:42.514Z,1001.14
2018-01-21T01:44:42.526Z,1001.16
2018-01-21T01:45:42.537Z,1001.14
2018-01-21T01:46:42.550Z,1001.18
2018-01-21T01:47:42.572Z,1001.18
2018-01-21T01:48:42.584Z,1001.21
2018-01-21T01:49:42.597Z,1001.23
2018-01-21T01:50:42.611Z,1001.32
2018-01-21T01:51:42.623Z,1001.24
2018-01-21T01:52:42.641Z,1001.31
2018-01-21T01:53:42.657Z,1001.32
2018-01-21T01:54:42.669Z,1001.31
2018-01-21T01:55:42.689Z,1001.37
2018-01-21T01:56:42.702Z,1001.40
2018-01-21T01:57:42.714Z,1001.38
2018-01-21T01:58:42.728Z,1001.45
2018-01-21T01:59:42.742Z,1001.50
2018-01-21T02:00:42.760Z,1001.48
2018-01-21T02:01:42.771Z,1001.47
2018-01-21T02:02:42.788Z,1001.39
2018-01-21T02:03:42.806Z,1001.46
2018-01-21T02:04:42.821Z,1001.44
2018-01-21T02:05:42.837Z,1001.44
2018-01-21T02:06:42.851Z,1001.43
2018-01-21T02:07:42.866Z,1001.46
2018-01-21T02:08:42.881Z,1001.49
2018-01-21T02:09:42.899Z,1001.55
2018-01-21T02:10:42.908Z,1001.59
2018-01-21T02:11:42.922Z,1001.59
2018-01-21T02:12:42.937Z,1001.53
2018-01-21T02:13:42.954Z,1001.63
2018-01-21T02:14:42.965Z,1001.69
2018-01-21T02:15:42.981Z,1001.67
2018-01-21T02:16:43.043Z,1001.67
2018-01-21T02:17:43.012Z,1001.70
2018-01-21T02:18:43.027Z,1001.71
2018-01-21T02:19:43.046Z,1001.74
2018-01-21T02:20:43.053Z,1001.83
2018-01-21T02:21:43.074Z,1001.86
2018-01-21T02:22:43.085Z,1001.90
2018-01-21T02:23:43.098Z,1001.91
2018-01-21T02:24:43.115Z,1001.90
2018-01-21T02:25:43.129Z,1001.93
2018-01-21T02:26:43.142Z,1001.91
2018-01-21T02:27:43.163Z,1001.99
2018-01-21T02:28:43.174Z,1001.98
2018-01-21T02:29:43.187Z,1001.95
2018-01-21T02:30:43.203Z,1001.98
2018-01-21T02:31:43.225Z,1001.95
2018-01-21T02:32:43.233Z,1001.99
2018-01-21T02:33:43.250Z,1002.06
2018-01-21T02:34:43.261Z,1002.07
2018-01-21T02:35:43.278Z,1002.05
2018-01-21T02:36:43.291Z,1002.07
2018-01-21T02:37:43.305Z,1002.11
2018-01-21T02:38:43.378Z,1002.10
2018-01-21T02:39:43.344Z,1002.08
2018-01-21T02:40:43.351Z,1002.13
2018-01-21T02:41:43.362Z,1002.12
2018-01-21T02:42:43.379Z,1002.17
2018-01-21T02:43:43.396Z,1002.10
2018-01-21T02:44:43.411Z,1002.14
2018-01-21T02:45:43.421Z,1002.16
2018-01-21T02:46:43.437Z,1002.14
2018-01-21T02:47:43.452Z,1002.15
2018-01-21T02:48:43.473Z,1002.18
2018-01-21T02:49:43.483Z,1002.22
2018-01-21T02:50:43.495Z,1002.27
2018-01-21T02:51:43.512Z,1002.31
2018-01-21T02:52:43.529Z,1002.33
2018-01-21T02:53:43.543Z,1002.33
2018-01-21T02:54:43.554Z,1002.32
2018-01-21T02:55:43.572Z,1002.38
2018-01-21T02:56:43.583Z,1002.38
2018-01-21T02:57:43.603Z,1002.39
2018-01-21T02:58:43.616Z,1002.41
2018-01-21T02:59:43.630Z,1002.47
2018-01-21T03:00:43.647Z,1002.44
2018-01-21T03:01:43.658Z,1002.51
2018-01-21T03:02:43.674Z,1002.54
2018-01-21T03:03:43.692Z,1002.52
2018-01-21T03:04:43.706Z,1002.59
2018-01-21T03:05:43.716Z,1002.62
2018-01-21T03:06:43.735Z,1002.66
2018-01-21T03:07:43.749Z,1002.68
2018-01-21T03:08:43.763Z,1002.67
2018-01-21T03:09:43.782Z,1002.65
2018-01-21T03:10:43.789Z,1002.63
2018-01-21T03:11:43.811Z,1002.63
2018-01-21T03:12:43.825Z,1002.62
2018-01-21T03:13:43.837Z,1002.61
2018-01-21T03:14:43.847Z,1002.65
2018-01-21T03:15:43.869Z,1002.81
2018-01-21T03:16:43.881Z,1002.77
2018-01-21T03:17:43.898Z,1002.82
2018-01-21T03:18:43.914Z,1002.83
2018-01-21T03:19:43.928Z,1002.85
2018-01-21T03:20:43.945Z,1002.84
2018-01-21T03:21:43.957Z,1002.84
2018-01-21T03:22:43.975Z,1002.91
2018-01-21T03:23:43.983Z,1002.86
2018-01-21T03:24:44.003Z,1002.94
2018-01-21T03:25:44.016Z,1002.92
2018-01-21T03:26:44.034Z,1002.88
2018-01-21T03:27:44.050Z,1002.92
2018-01-21T03:28:44.059Z,1002.92
2018-01-21T03:29:44.073Z,1002.96
2018-01-21T03:30:44.096Z,1002.95
2018-01-21T03:31:44.105Z,1002.97
2018-01-21T03:32:44.120Z,1003.02
2018-01-21T03:33:45.252Z,1003.04
2018-01-21T03:34:44.150Z,1003.07
2018-01-21T03:35:44.168Z,1003.05
2018-01-21T03:36:44.175Z,1003.10
2018-01-21T03:37:44.192Z,1003.07
2018-01-21T03:38:44.210Z,1003.09
2018-01-21T03:39:44.224Z,1003.12
2018-01-21T03:40:44.234Z,1003.15
2018-01-21T03:41:44.255Z,1003.14
2018-01-21T03:42:44.264Z,1003.25
2018-01-21T03:43:44.281Z,1003.24
2018-01-21T03:44:44.308Z,1003.25
2018-01-21T03:45:44.313Z,1003.28
2018-01-21T03:46:44.330Z,1003.25
2018-01-21T03:47:44.341Z,1003.29
2018-01-21T03:48:44.355Z,1003.32
2018-01-21T03:49:44.376Z,1003.35
2018-01-21T03:50:44.387Z,1003.34
2018-01-21T03:51:44.406Z,1003.34
2018-01-21T03:52:44.424Z,1003.32
2018-01-21T03:53:44.430Z,1003.41
2018-01-21T03:54:44.446Z,1003.43
2018-01-21T03:55:44.456Z,1003.47
2018-01-21T03:56:44.473Z,1003.54
2018-01-21T03:57:44.489Z,1003.52
2018-01-21T03:58:44.506Z,1003.55
2018-01-21T03:59:44.530Z,1003.55
2018-01-21T04:00:44.534Z,1003.63
2018-01-21T04:01:44.547Z,1003.61
2018-01-21T04:02:44.562Z,1003.67
2018-01-21T04:03:44.580Z,1003.71
2018-01-21T04:04:44.591Z,1003.74
2018-01-21T04:05:44.608Z,1003.76
2018-01-21T04:06:44.622Z,1003.70
2018-01-21T04:07:44.636Z,1003.75
2018-01-21T04:08:44.653Z,1003.74
2018-01-21T04:09:44.665Z,1003.73
2018-01-21T04:10:44.680Z,1003.74
2018-01-21T04:11:44.700Z,1003.75
2018-01-21T04:12:44.714Z,1003.77
2018-01-21T04:13:44.724Z,1003.81
2018-01-21T04:14:44.738Z,1003.84
2018-01-21T04:15:44.758Z,1003.77
2018-01-21T04:16:44.766Z,1003.78
2018-01-21T04:17:44.778Z,1003.80
2018-01-21T04:18:44.794Z,1003.84
2018-01-21T04:19:44.812Z,1003.83
2018-01-21T04:20:44.822Z,1003.89
2018-01-21T04:21:44.841Z,1003.95
2018-01-21T04:22:44.856Z,1003.95
2018-01-21T04:23:44.871Z,1003.99
2018-01-21T04:24:44.881Z,1004.02
2018-01-21T04:25:44.896Z,1003.99
2018-01-21T04:26:44.914Z,1004.04
2018-01-21T04:27:44.924Z,1004.01
2018-01-21T04:28:44.939Z,1004.05
2018-01-21T04:29:44.963Z,1004.14
2018-01-21T04:30:44.967Z,1004.13
2018-01-21T04:31:44.983Z,1004.14
2018-01-21T04:32:44.996Z,1004.21
2018-01-21T04:33:45.013Z,1004.22
2018-01-21T04:34:45.023Z,1004.22
2018-01-21T04:35:45.044Z,1004.25
2018-01-21T04:36:45.055Z,1004.30
2018-01-21T04:37:45.067Z,1004.35
2018-01-21T04:38:45.081Z,1004.34
2018-01-21T04:39:45.100Z,1004.34
2018-01-21T04:40:45.112Z,1004.35
2018-01-21T04:41:45.126Z,1004.33
2018-01-21T04:42:45.144Z,1004.38
2018-01-21T04:43:45.156Z,1004.40
2018-01-21T04:44:45.166Z,1004.41
2018-01-21T04:45:45.182Z,1004.42
2018-01-21T04:46:45.195Z,1004.44
2018-01-21T04:47:45.212Z,1004.45
2018-01-21T04:48:45.230Z,1004.48
2018-01-21T04:49:45.291Z,1004.43
2018-01-21T04:50:45.255Z,1004.46
2018-01-21T04:51:45.269Z,1004.51
2018-01-21T04:52:45.284Z,1004.55
2018-01-21T04:53:45.293Z,1004.59
2018-01-21T04:54:45.313Z,1004.57
2018-01-21T04:55:45.324Z,1004.62
2018-01-21T04:56:45.350Z,1004.61
2018-01-21T04:57:45.349Z,1004.63
2018-01-21T04:58:45.369Z,1004.66
2018-01-21T04:59:45.380Z,1004.66
2018-01-21T05:00:45.398Z,1004.65
2018-01-21T05:01:45.406Z,1004.70
2018-01-21T05:02:45.425Z,1004.77
2018-01-21T05:03:45.433Z,1004.74
2018-01-21T05:04:45.452Z,1004.78
2018-01-21T05:05:45.469Z,1004.81
2018-01-21T05:06:45.482Z,1004.83
2018-01-21T05:07:45.497Z,1004.80
2018-01-21T05:08:45.509Z,1004.81
2018-01-21T05:09:45.524Z,1004.85
2018-01-21T05:10:45.537Z,1004.90
2018-01-21T05:11:45.547Z,1004.87
2018-01-21T05:12:45.565Z,1004.90
2018-01-21T05:13:45.577Z,1004.86
2018-01-21T05:14:45.594Z,1004.92
2018-01-21T05:15:45.608Z,1004.92
2018-01-21T05:16:45.621Z,1004.88
2018-01-21T05:17:45.635Z,1004.93
2018-01-21T05:18:45.648Z,1004.94
2018-01-21T05:19:45.664Z,1004.94
2018-01-21T05:20:45.675Z,1004.93
2018-01-21T05:21:45.689Z,1004.98
2018-01-21T05:22:45.707Z,1004.92
2018-01-21T05:23:45.718Z,1004.96
2018-01-21T05:24:45.734Z,1004.97
2018-01-21T05:25:45.748Z,1004.98
2018-01-21T05:26:45.757Z,1004.99
2018-01-21T05:27:45.774Z,1004.99
2018-01-21T05:28:45.793Z,1005.00
2018-01-21T05:29:45.799Z,1004.99
2018-01-21T05:30:45.814Z,1004.99
2018-01-21T05:31:45.834Z,1005.05
2018-01-21T05:32:45.853Z,1004.99
2018-01-21T05:33:45.866Z,1005.02
2018-01-21T05:34:45.873Z,1005.03
2018-01-21T05:35:45.888Z,1005.04
2018-01-21T05:36:45.905Z,1005.04
2018-01-21T05:37:45.918Z,1005.01
2018-01-21T05:38:45.931Z,1005.01
2018-01-21T05:39:45.946Z,1005.04
2018-01-21T05:40:45.959Z,1005.03
2018-01-21T05:41:45.976Z,1005.06
2018-01-21T05:42:45.985Z,1005.13
2018-01-21T05:43:45.999Z,1005.14
2018-01-21T05:44:46.017Z,1005.15
2018-01-21T05:45:46.024Z,1005.14
2018-01-21T05:46:46.037Z,1005.15
2018-01-21T05:47:46.061Z,1005.16
2018-01-21T05:48:46.064Z,1005.16
2018-01-21T05:49:46.077Z,1005.16
2018-01-21T05:50:46.101Z,1005.19
2018-01-21T05:51:46.111Z,1005.18
2018-01-21T05:52:46.130Z,1005.24
2018-01-21T05:53:46.136Z,1005.25
2018-01-21T05:54:46.151Z,1005.26
2018-01-21T05:55:46.173Z,1005.27
2018-01-21T05:56:46.179Z,1005.29
2018-01-21T05:57:46.193Z,1005.30
2018-01-21T05:58:46.207Z,1005.37
2018-01-21T05:59:46.219Z,1005.37
2018-01-21T06:00:46.240Z,1005.39
2018-01-21T06:01:46.247Z,1005.39
2018-01-21T06:02:46.265Z,1005.43
2018-01-21T06:03:46.276Z,1005.42
2018-01-21T06:04:46.289Z,1005.46
2018-01-21T06:05:46.315Z,1005.40
2018-01-21T06:06:46.318Z,1005.46
2018-01-21T06:07:46.330Z,1005.52
2018-01-21T06:08:46.343Z,1005.63
2018-01-21T06:09:46.360Z,1005.55
2018-01-21T06:10:46.372Z,1005.61
2018-01-21T06:11:46.386Z,1005.62
2018-01-21T06:12:46.398Z,1005.67
2018-01-21T06:13:46.413Z,1005.65
2018-01-21T06:14:46.428Z,1005.67
2018-01-21T06:15:46.443Z,1005.72
2018-01-21T06:16:46.458Z,1005.76
2018-01-21T06:17:46.469Z,1005.78
2018-01-21T06:18:46.482Z,1005.79
2018-01-21T06:19:46.497Z,1005.82
2018-01-21T06:20:46.511Z,1005.85
2018-01-21T06:21:46.527Z,1005.85
2018-01-21T06:22:46.533Z,1005.83
2018-01-21T06:23:46.554Z,1005.82
2018-01-21T06:24:46.567Z,1005.84
2018-01-21T06:25:46.576Z,1005.91
2018-01-21T06:26:46.588Z,1005.91
2018-01-21T06:27:46.612Z,1005.93
2018-01-21T06:28:46.626Z,1005.98
2018-01-21T06:29:46.635Z,1006.01
2018-01-21T06:30:46.647Z,1006.04
2018-01-21T06:31:46.668Z,1006.06
2018-01-21T06:32:46.674Z,1006.08
2018-01-21T06:33:46.694Z,1006.14
2018-01-21T06:34:46.702Z,1006.17
2018-01-21T06:35:46.721Z,1006.20
2018-01-21T06:36:46.735Z,1006.21
2018-01-21T06:37:46.749Z,1006.20
2018-01-21T06:38:46.764Z,1006.29
2018-01-21T06:39:46.776Z,1006.30
2018-01-21T06:40:46.787Z,1006.29
2018-01-21T06:41:46.807Z,1006.35
2018-01-21T06:42:46.818Z,1006.31
2018-01-21T06:43:46.832Z,1006.37
2018-01-21T06:44:46.845Z,1006.37
2018-01-21T06:45:46.858Z,1006.40
2018-01-21T06:46:46.871Z,1006.41
2018-01-21T06:47:46.888Z,1006.46
2018-01-21T06:48:46.903Z,1006.49
2018-01-21T06:49:46.911Z,1006.49
2018-01-21T06:50:46.925Z,1006.50
2018-01-21T06:51:46.950Z,1006.55
2018-01-21T06:52:46.956Z,1006.55
2018-01-21T06:53:46.968Z,1006.56
2018-01-21T06:54:46.990Z,1006.56
2018-01-21T06:55:46.998Z,1006.57
2018-01-21T06:56:47.010Z,1006.57
2018-01-21T06:57:47.025Z,1006.57
2018-01-21T06:58:47.039Z,1006.62
2018-01-21T06:59:47.052Z,1006.62
2018-01-21T07:00:47.066Z,1006.66
2018-01-21T07:01:47.080Z,1006.67
2018-01-21T07:02:47.100Z,1006.67
2018-01-21T07:03:47.112Z,1006.68
2018-01-21T07:04:47.132Z,1006.70
2018-01-21T07:05:47.145Z,1006.72
2018-01-21T07:06:47.153Z,1006.70
2018-01-21T07:07:47.162Z,1006.76
2018-01-21T07:08:47.179Z,1006.76
2018-01-21T07:09:47.196Z,1006.82
2018-01-21T07:10:47.211Z,1006.79
2018-01-21T07:11:47.219Z,1006.84
2018-01-21T07:12:47.235Z,1006.86
2018-01-21T07:13:47.250Z,1006.84
2018-01-21T07:14:47.259Z,1006.90
2018-01-21T07:15:47.276Z,1006.94
2018-01-21T07:16:47.297Z,1006.92
2018-01-21T07:17:47.304Z,1006.94
2018-01-21T07:18:47.315Z,1007.03
2018-01-21T07:19:47.331Z,1007.01
2018-01-21T07:20:47.346Z,1007.08
2018-01-21T07:21:47.359Z,1007.10
2018-01-21T07:22:47.374Z,1007.14
2018-01-21T07:23:47.384Z,1007.14
2018-01-21T07:24:47.401Z,1007.17
2018-01-21T07:25:47.413Z,1007.16
2018-01-21T07:26:47.429Z,1007.20
2018-01-21T07:27:47.442Z,1007.20
2018-01-21T07:28:47.458Z,1007.22
2018-01-21T07:29:47.471Z,1007.24
2018-01-21T07:30:47.484Z,1007.22
2018-01-21T07:31:47.501Z,1007.27
2018-01-21T07:32:47.510Z,1007.25
2018-01-21T07:33:47.525Z,1007.30
2018-01-21T07:34:47.540Z,1007.34
2018-01-21T07:35:47.554Z,1007.32
2018-01-21T07:36:47.565Z,1007.37
2018-01-21T07:37:47.586Z,1007.35
2018-01-21T07:38:47.600Z,1007.37
2018-01-21T07:39:47.613Z,1007.36
2018-01-21T07:40:47.625Z,1007.38
2018-01-21T07:41:47.639Z,1007.39
2018-01-21T07:42:47.657Z,1007.44
2018-01-21T07:43:47.669Z,1007.46
2018-01-21T07:44:47.687Z,1007.47
2018-01-21T07:45:47.702Z,1007.48
2018-01-21T07:46:47.707Z,1007.46
2018-01-21T07:47:47.729Z,1007.49
2018-01-21T07:48:47.736Z,1007.54
2018-01-21T07:49:47.751Z,1007.56
2018-01-21T07:50:47.771Z,1007.57
2018-01-21T07:51:47.785Z,1007.57
2018-01-21T07:52:47.853Z,1007.57
2018-01-21T07:53:47.809Z,1007.61
2018-01-21T07:54:47.825Z,1007.61
2018-01-21T07:55:47.840Z,1007.65
2018-01-21T07:56:47.853Z,1007.70
2018-01-21T07:57:47.865Z,1007.71
2018-01-21T07:58:47.883Z,1007.73
2018-01-21T07:59:47.898Z,1007.79
2018-01-21T08:00:47.909Z,1007.80
2018-01-21T08:01:47.927Z,1007.83
2018-01-21T08:02:47.937Z,1007.82
2018-01-21T08:03:47.954Z,1007.85
2018-01-21T08:04:47.966Z,1007.88
2018-01-21T08:05:47.980Z,1007.88
2018-01-21T08:06:47.995Z,1007.91
2018-01-21T08:07:48.009Z,1007.92
2018-01-21T08:08:48.025Z,1007.97
2018-01-21T08:09:48.040Z,1007.97
2018-01-21T08:10:48.052Z,1007.97
2018-01-21T08:11:48.069Z,1008.01
2018-01-21T08:12:48.081Z,1008.07
2018-01-21T08:13:48.094Z,1008.07
2018-01-21T08:14:48.109Z,1008.13
2018-01-21T08:15:48.123Z,1008.12
2018-01-21T08:16:48.139Z,1008.08
2018-01-21T08:17:48.151Z,1008.11
2018-01-21T08:18:48.173Z,1008.12
2018-01-21T08:19:48.180Z,1008.20
2018-01-21T08:20:48.195Z,1008.21
2018-01-21T08:21:48.218Z,1008.20
2018-01-21T08:22:48.236Z,1008.18
2018-01-21T08:23:48.245Z,1008.21
2018-01-21T08:24:48.255Z,1008.23
2018-01-21T08:25:48.269Z,1008.24
2018-01-21T08:26:48.284Z,1008.27
2018-01-21T08:27:48.298Z,1008.27
2018-01-21T08:28:48.321Z,1008.28
2018-01-21T08:29:48.329Z,1008.30
2018-01-21T08:30:48.341Z,1008.33
2018-01-21T08:31:48.358Z,1008.30
2018-01-21T08:32:48.377Z,1008.29
2018-01-21T08:33:48.386Z,1008.25
2018-01-21T08:34:48.401Z,1008.29
2018-01-21T08:35:48.415Z,1008.34
2018-01-21T08:36:48.431Z,1008.26
2018-01-21T08:37:48.448Z,1008.30
2018-01-21T08:38:48.460Z,1008.36
2018-01-21T08:39:48.473Z,1008.41
2018-01-21T08:40:48.489Z,1008.37
2018-01-21T08:41:48.502Z,1008.37
2018-01-21T08:42:48.518Z,1008.38
2018-01-21T08:43:48.535Z,1008.38
2018-01-21T08:44:48.548Z,1008.38
2018-01-21T08:45:48.574Z,1008.40
2018-01-21T08:46:48.580Z,1008.44
2018-01-21T08:47:48.593Z,1008.44
2018-01-21T08:48:48.618Z,1008.44
2018-01-21T08:49:48.645Z,1008.43
2018-01-21T08:50:48.639Z,1008.44
2018-01-21T08:51:48.648Z,1008.44
2018-01-21T08:52:48.679Z,1008.46
2018-01-21T08:53:48.683Z,1008.45
2018-01-21T08:54:48.694Z,1008.46
2018-01-21T08:55:48.709Z,1008.47
2018-01-21T08:56:48.731Z,1008.51
2018-01-21T08:57:48.744Z,1008.53
2018-01-21T08:58:48.755Z,1008.59
2018-01-21T08:59:48.773Z,1008.57
2018-01-21T09:00:48.792Z,1008.63
2018-01-21T09:01:48.799Z,1008.65
2018-01-21T09:02:48.812Z,1008.71
2018-01-21T09:03:48.831Z,1008.66
2018-01-21T09:04:48.853Z,1008.66
2018-01-21T09:05:48.860Z,1008.74
2018-01-21T09:06:48.874Z,1008.70
2018-01-21T09:07:48.928Z,1008.74
2018-01-21T09:08:48.901Z,1008.74
2018-01-21T09:09:48.919Z,1008.76
2018-01-21T09:10:48.933Z,1008.79
2018-01-21T09:11:48.960Z,1008.81
2018-01-21T09:12:48.967Z,1008.79
2018-01-21T09:13:48.974Z,1008.77
2018-01-21T09:14:48.991Z,1008.73
2018-01-21T09:15:49.014Z,1008.72
2018-01-21T09:16:49.053Z,1008.72
2018-01-21T09:17:49.033Z,1008.75
2018-01-21T09:18:49.053Z,1008.78
2018-01-21T09:19:49.077Z,1008.81
2018-01-21T09:20:49.077Z,1008.79
2018-01-21T09:21:49.094Z,1008.83
2018-01-21T09:22:49.110Z,1008.90
2018-01-21T09:23:49.137Z,1008.95
2018-01-21T09:24:49.139Z,1008.95
2018-01-21T09:25:49.161Z,1008.94
2018-01-21T09:26:49.173Z,1008.92
2018-01-21T09:27:49.233Z,1009.03
2018-01-21T09:28:49.199Z,1009.02
2018-01-21T09:29:49.219Z,1009.06
2018-01-21T09:30:49.234Z,1009.03
2018-01-21T09:31:49.247Z,1009.03
2018-01-21T09:32:49.266Z,1009.05
2018-01-21T09:33:49.279Z,1009.00
2018-01-21T09:34:49.292Z,1009.02
2018-01-21T09:35:49.320Z,1009.07
2018-01-21T09:36:49.321Z,1009.08
2018-01-21T09:37:49.337Z,1009.07
2018-01-21T09:38:49.356Z,1009.07
2018-01-21T09:39:49.381Z,1009.09
2018-01-21T09:40:49.382Z,1009.13
2018-01-21T09:41:49.403Z,1009.16
2018-01-21T09:42:49.415Z,1009.19
2018-01-21T09:43:49.442Z,1009.24
2018-01-21T09:44:49.457Z,1009.24
2018-01-21T09:45:49.478Z,1009.31
2018-01-21T09:46:49.478Z,1009.35
2018-01-21T09:47:49.497Z,1009.31
2018-01-21T09:48:49.508Z,1009.32
2018-01-21T09:49:49.524Z,1009.36
2018-01-21T09:50:49.542Z,1009.41
2018-01-21T09:51:49.587Z,1009.45
2018-01-21T09:52:49.572Z,1009.52
2018-01-21T09:53:49.589Z,1009.56
2018-01-21T09:54:49.601Z,1009.56
2018-01-21T09:55:49.620Z,1009.64
2018-01-21T09:56:49.633Z,1009.69
2018-01-21T09:57:49.651Z,1009.67
2018-01-21T09:58:49.675Z,1009.72
2018-01-21T09:59:49.687Z,1009.70
2018-01-21T10:00:49.696Z,1009.66
2018-01-21T10:01:49.717Z,1009.63
2018-01-21T10:02:49.737Z,1009.58
2018-01-21T10:03:49.745Z,1009.56
2018-01-21T10:04:49.768Z,1009.63
2018-01-21T10:05:49.781Z,1009.66
2018-01-21T10:06:49.792Z,1009.65
2018-01-21T10:07:49.813Z,1009.71
2018-01-21T10:08:49.833Z,1009.71
2018-01-21T10:09:49.844Z,1009.69
2018-01-21T10:10:49.871Z,1009.65
2018-01-21T10:11:49.876Z,1009.67
2018-01-21T10:12:49.892Z,1009.66
2018-01-21T10:13:49.908Z,1009.66
2018-01-21T10:14:49.936Z,1009.69
2018-01-21T10:15:49.939Z,1009.71
2018-01-21T10:16:49.955Z,1009.74
2018-01-21T10:17:49.969Z,1009.74
2018-01-21T10:18:50.001Z,1009.79
2018-01-21T10:19:50.011Z,1009.75
2018-01-21T10:20:50.019Z,1009.74
2018-01-21T10:21:51.282Z,1009.78
2018-01-21T10:22:50.068Z,1009.80
2018-01-21T10:23:50.068Z,1009.74
2018-01-21T10:24:50.086Z,1009.78
2018-01-21T10:25:50.103Z,1009.82
2018-01-21T10:26:50.143Z,1009.83
2018-01-21T10:27:50.136Z,1009.83
2018-01-21T10:28:50.151Z,1009.86
2018-01-21T10:29:50.169Z,1009.87
2018-01-21T10:30:50.207Z,1009.87
2018-01-21T10:31:50.202Z,1009.89
2018-01-21T10:32:50.217Z,1009.90
2018-01-21T10:33:50.234Z,1009.93
2018-01-21T10:34:50.267Z,1009.91
2018-01-21T10:35:50.261Z,1009.94
2018-01-21T10:36:50.283Z,1009.91
2018-01-21T10:37:50.300Z,1009.89
2018-01-21T10:38:50.355Z,1009.91
2018-01-21T10:39:50.329Z,1009.89
2018-01-21T10:40:50.345Z,1009.88
2018-01-21T10:41:50.363Z,1009.87
2018-01-21T10:42:50.395Z,1009.84
2018-01-21T10:43:50.395Z,1009.78
2018-01-21T10:44:50.412Z,1009.80
2018-01-21T10:45:50.429Z,1009.89
2018-01-21T10:46:50.460Z,1009.88
2018-01-21T10:47:50.461Z,1009.89
2018-01-21T10:48:50.476Z,1009.92
2018-01-21T10:49:50.522Z,1009.92
2018-01-21T10:50:50.512Z,1009.93
2018-01-21T10:51:50.527Z,1009.92
2018-01-21T10:52:50.541Z,1009.91
2018-01-21T10:53:50.570Z,1009.88
2018-01-21T10:54:50.574Z,1009.91
2018-01-21T10:55:50.596Z,1009.91
2018-01-21T10:56:50.608Z,1009.94
2018-01-21T10:57:50.628Z,1009.97
2018-01-21T10:58:50.644Z,1010.02
2018-01-21T10:59:50.658Z,1010.05
2018-01-21T11:00:50.675Z,1010.04
2018-01-21T11:01:50.699Z,1010.04
2018-01-21T11:02:50.722Z,1010.04
2018-01-21T11:03:50.739Z,1010.00
2018-01-21T11:04:50.738Z,1009.95
2018-01-21T11:05:50.758Z,1009.99
2018-01-21T11:06:50.775Z,1010.01
2018-01-21T11:07:50.810Z,1009.98
2018-01-21T11:08:50.811Z,1010.01
2018-01-21T11:09:50.826Z,1010.00
2018-01-21T11:10:50.841Z,1010.02
2018-01-21T11:11:50.868Z,1010.02
2018-01-21T11:12:50.872Z,1010.02
2018-01-21T11:13:50.890Z,1010.07
2018-01-21T11:14:50.903Z,1010.03
2018-01-21T11:15:50.935Z,1010.02
2018-01-21T11:16:50.940Z,1010.00
2018-01-21T11:17:50.952Z,1009.99
2018-01-21T11:18:50.968Z,1009.96
2018-01-21T11:19:51.000Z,1009.93
2018-01-21T11:20:51.000Z,1009.91
2018-01-21T11:21:51.017Z,1009.96
2018-01-21T11:22:51.033Z,1009.96
2018-01-21T11:23:51.069Z,1009.96
2018-01-21T11:24:51.068Z,1009.93
2018-01-21T11:25:51.081Z,1009.92
2018-01-21T11:26:51.101Z,1009.99
2018-01-21T11:27:51.119Z,1009.98
2018-01-21T11:28:51.133Z,1010.00
2018-01-21T11:29:51.152Z,1010.00
2018-01-21T11:30:51.166Z,1010.01
2018-01-21T11:31:51.221Z,1009.99
2018-01-21T11:32:51.199Z,1009.97
2018-01-21T11:33:51.211Z,1009.99
2018-01-21T11:34:51.230Z,1009.91
2018-01-21T11:35:51.247Z,1009.91
2018-01-21T11:36:51.260Z,1009.89
2018-01-21T11:37:51.284Z,1009.93
2018-01-21T11:38:51.299Z,1009.96
2018-01-21T11:39:51.333Z,1009.95
2018-01-21T11:40:51.329Z,1009.94
2018-01-21T11:41:51.342Z,1009.90
2018-01-21T11:42:51.363Z,1009.90
2018-01-21T11:43:51.385Z,1009.85
2018-01-21T11:44:51.390Z,1009.84
2018-01-21T11:45:51.408Z,1009.90
2018-01-21T11:46:51.424Z,1009.89
2018-01-21T11:47:51.442Z,1009.96
2018-01-21T11:48:51.461Z,1009.94
2018-01-21T11:49:51.476Z,1009.95
2018-01-21T11:50:51.493Z,1009.91
2018-01-21T11:51:51.517Z,1009.88
2018-01-21T11:52:51.526Z,1009.74
2018-01-21T11:53:51.555Z,1009.84
2018-01-21T11:54:51.555Z,1009.86
2018-01-21T11:55:51.584Z,1009.87
2018-01-21T11:56:51.591Z,1009.90
2018-01-21T11:57:51.607Z,1009.89
2018-01-21T11:58:51.624Z,1009.85
2018-01-21T11:59:51.640Z,1009.83
2018-01-21T12:00:51.650Z,1009.76
2018-01-21T12:01:51.720Z,1009.77
2018-01-21T12:02:51.702Z,1009.78
2018-01-21T12:03:51.701Z,1009.81
2018-01-21T12:04:51.719Z,1009.88
2018-01-21T12:05:51.733Z,1009.81
2018-01-21T12:06:51.756Z,1009.81
2018-01-21T12:07:51.770Z,1009.83